Terminal Aerodrome Forecast
Issued by NWS Atlanta, GA

Home | Current Version | Previous Version | Text Only | Print | Product List | Glossary On
Versions: 1 2 3 4 5 6 7 8 9 10 11 12 13 14
728
FTUS42 KFFC 250538
TAFMCN
TAF
KMCN 250538Z 2506/2606 03003KT P6SM FEW050 SCT250
     FM251600 04009KT P6SM FEW050 SCT250
     FM260000 00000KT P6SM SCT250=

USA.gov is the U.S. government's official web portal to all federal, state and local government web resources and services.